Time;durP1;ratioP1;P1;durP2;ratioP2;P2;SDS_P1;SDS_P2;PMS_P1;PMS_P2;Temp;Humidity;BMP_temperature;BMP_pressure;BME280_temperature;BME280_humidity;BME280_pressure;Samples;Min_cycle;Max_cycle;Signal;HPM_P1;HPM_P2
2023/12/24 00:00:25;;;;;;;2.70;0.50;;;;;;;0.62;100.00;99324.77;105534;1257;69169;-57
2023/12/24 00:03:13;;;;;;;2.80;0.40;;;;;;;0.59;100.00;99337.34;105539;1256;69082;-57
2023/12/24 00:05:42;;;;;;;3.30;0.40;;;;;;;0.57;100.00;99341.83;105574;1256;74003;-57
2023/12/24 00:08:10;;;;;;;4.20;0.60;;;;;;;0.56;100.00;99351.84;105597;1256;81997;-58
2023/12/24 00:10:38;;;;;;;3.40;0.40;;;;;;;0.52;100.00;99353.42;105520;1253;71951;-58
2023/12/24 00:13:07;;;;;;;2.50;0.40;;;;;;;0.49;100.00;99358.10;105562;1257;69221;-57
2023/12/24 00:15:35;;;;;;;2.70;0.50;;;;;;;0.47;100.00;99358.81;105534;1256;69200;-57
2023/12/24 00:18:03;;;;;;;0.50;0.30;;;;;;;0.43;100.00;99357.99;105556;1256;70953;-57
2023/12/24 00:20:31;;;;;;;2.40;0.60;;;;;;;0.42;100.00;99363.86;105526;1257;81792;-57
2023/12/24 00:23:07;;;;;;;3.20;0.70;;;;;;;0.39;100.00;99359.43;105510;1259;71627;-58
2023/12/24 00:25:37;;;;;;;2.70;0.60;;;;;;;0.36;100.00;99364.96;105548;1258;69160;-59
2023/12/24 00:28:05;;;;;;;7.10;0.60;;;;;;;0.34;100.00;99361.21;105616;1256;69281;-59
2023/12/24 00:30:34;;;;;;;2.60;0.60;;;;;;;0.34;100.00;99365.35;105631;1257;71463;-60
2023/12/24 00:33:03;;;;;;;1.00;0.30;;;;;;;0.32;100.00;99368.46;105653;1257;81320;-59
2023/12/24 00:35:33;;;;;;;1.60;0.50;;;;;;;0.28;100.00;99362.47;105610;1256;72434;-60
2023/12/24 00:38:02;;;;;;;;;;;;;;;0.25;100.00;99359.25;105580;1257;69151;-60
2023/12/24 00:40:31;;;;;;;4.30;0.60;;;;;;;0.23;100.00;99363.92;105558;1256;69126;-59
2023/12/24 00:43:01;;;;;;;2.70;0.70;;;;;;;0.21;100.00;99361.70;105601;1255;71221;-60
2023/12/24 00:45:31;;;;;;;3.20;0.50;;;;;;;0.21;100.00;99369.44;105576;1257;81969;-59
2023/12/24 00:47:59;;;;;;;2.80;0.50;;;;;;;0.20;100.00;99368.08;105531;1254;72046;-60
2023/12/24 00:50:28;;;;;;;2.20;0.40;;;;;;;0.20;100.00;99374.95;105537;1257;69179;-59
2023/12/24 00:52:56;;;;;;;2.60;0.30;;;;;;;0.21;100.00;99365.66;105396;1258;69276;-60
2023/12/24 00:55:24;;;;;;;2.60;0.50;;;;;;;0.24;100.00;99368.90;105608;1254;71959;-60
2023/12/24 00:57:53;;;;;;;3.00;0.60;;;;;;;0.24;100.00;99368.73;105635;1262;81650;-59
2023/12/24 01:00:22;;;;;;;5.80;0.80;;;;;;;0.25;100.00;99378.33;105571;1254;71604;-60
2023/12/24 01:02:51;;;;;;;2.30;0.50;;;;;;;0.25;100.00;99378.67;105557;1254;69088;-60
2023/12/24 01:05:19;;;;;;;3.00;0.50;;;;;;;0.27;100.00;99377.79;105636;1254;69144;-60
2023/12/24 01:07:48;;;;;;;2.90;0.50;;;;;;;0.26;100.00;99385.71;105562;1256;71983;-60
2023/12/24 01:10:16;;;;;;;2.40;0.60;;;;;;;0.25;100.00;99387.79;105512;1257;81625;-60
2023/12/24 01:12:45;;;;;;;2.10;0.40;;;;;;;0.24;100.00;99387.10;105500;1257;71631;-60
2023/12/24 01:15:13;;;;;;;3.30;0.50;;;;;;;0.23;100.00;99390.73;105452;1255;69116;-60
2023/12/24 01:17:42;;;;;;;3.60;1.10;;;;;;;0.20;100.00;99390.92;105572;1257;69295;-60
2023/12/24 01:20:15;;;;;;;5.30;0.40;;;;;;;0.19;100.00;99395.24;105633;1258;72372;-60
2023/12/24 01:22:43;;;;;;;3.60;0.60;;;;;;;0.16;100.00;99394.23;105625;1252;81336;-60
2023/12/24 01:25:12;;;;;;;2.50;0.40;;;;;;;0.14;100.00;99392.88;105612;1256;71510;-60
2023/12/24 01:27:40;;;;;;;2.60;0.50;;;;;;;0.15;100.00;99395.96;105612;1257;69209;-60
2023/12/24 01:30:09;;;;;;;2.60;0.60;;;;;;;0.13;100.00;99398.23;105556;1254;69082;-60
2023/12/24 01:32:37;;;;;;;2.90;0.60;;;;;;;0.11;100.00;99394.64;105578;1256;70845;-60
2023/12/24 01:35:06;;;;;;;3.50;0.80;;;;;;;0.09;100.00;99393.45;105394;1254;81499;-60
2023/12/24 01:37:34;;;;;;;2.20;0.60;;;;;;;0.06;100.00;99395.73;105605;1256;70877;-60
2023/12/24 01:40:03;;;;;;;2.40;0.70;;;;;;;0.04;100.00;99397.98;105566;1253;69516;-59
2023/12/24 01:42:32;;;;;;;2.50;0.90;;;;;;;0.03;100.00;99395.23;105492;1257;69198;-58
2023/12/24 01:45:01;;;;;;;2.90;1.00;;;;;;;0.02;100.00;99404.86;105575;1257;71837;-58
2023/12/24 01:47:29;;;;;;;2.50;0.80;;;;;;;0.00;100.00;99400.41;105633;1258;81184;-58
2023/12/24 01:49:59;;;;;;;2.50;0.70;;;;;;;-0.02;100.00;99396.31;105466;1254;71588;-58
2023/12/24 01:52:27;;;;;;;2.20;1.00;;;;;;;-0.04;100.00;99397.53;105534;1254;69162;-58
2023/12/24 01:54:56;;;;;;;2.30;0.70;;;;;;;-0.05;100.00;99400.47;105559;1254;69725;-59
2023/12/24 01:57:24;;;;;;;2.70;0.60;;;;;;;-0.05;100.00;99401.67;105608;1254;70776;-58
2023/12/24 01:59:52;;;;;;;2.20;0.90;;;;;;;-0.06;100.00;99402.88;105485;1257;82477;-58
2023/12/24 02:02:20;;;;;;;1.90;0.90;;;;;;;-0.08;100.00;99406.69;105468;1257;70956;-58
2023/12/24 02:04:49;;;;;;;1.00;0.70;;;;;;;-0.09;100.00;99401.19;105416;1254;69177;-58
2023/12/24 02:07:18;;;;;;;0.90;0.60;;;;;;;-0.10;100.00;99398.63;105505;1254;69128;-59
2023/12/24 02:09:46;;;;;;;1.30;0.80;;;;;;;-0.12;100.00;99395.39;105645;1254;72520;-59
2023/12/24 02:12:14;;;;;;;2.40;0.80;;;;;;;-0.14;100.00;99390.95;105585;1256;81862;-59
2023/12/24 02:14:42;;;;;;;2.90;0.80;;;;;;;-0.15;100.00;99394.39;105576;1254;73015;-58
2023/12/24 02:17:10;;;;;;;1.40;0.70;;;;;;;-0.16;100.00;99392.68;105433;1252;69193;-59
2023/12/24 02:19:39;;;;;;;2.60;0.80;;;;;;;-0.17;100.00;99387.20;105338;1254;69186;-59
2023/12/24 02:22:07;;;;;;;2.00;0.80;;;;;;;-0.18;100.00;99388.40;105381;1257;72580;-59
2023/12/24 02:24:35;;;;;;;2.10;0.90;;;;;;;-0.18;100.00;99387.03;105652;1257;81305;-59
2023/12/24 02:27:22;;;;;;;1.90;0.70;;;;;;;-0.19;100.00;99385.14;105347;1254;71046;-61
2023/12/24 02:29:53;;;;;;;1.50;0.60;;;;;;;-0.21;100.00;99382.76;105641;1257;69128;-61
2023/12/24 02:32:21;;;;;;;;;;;;;;;-0.22;100.00;99382.27;105572;1254;69172;-62
2023/12/24 02:34:50;;;;;;;2.50;0.80;;;;;;;-0.24;100.00;99382.10;105588;1254;72009;-61
2023/12/24 02:37:18;;;;;;;1.40;0.80;;;;;;;-0.25;100.00;99379.37;105455;1257;81243;-61
2023/12/24 02:39:46;;;;;;;1.30;0.60;;;;;;;-0.26;100.00;99380.23;105450;1254;71921;-61
2023/12/24 02:42:14;;;;;;;2.40;0.80;;;;;;;-0.27;100.00;99379.73;105498;1254;69183;-61
2023/12/24 02:44:43;;;;;;;1.10;0.70;;;;;;;-0.26;100.00;99383.84;105436;1257;69215;-61
2023/12/24 02:47:11;;;;;;;2.50;1.00;;;;;;;-0.27;100.00;99384.02;105515;1257;73346;-62
2023/12/24 02:49:39;;;;;;;2.90;1.20;;;;;;;-0.27;100.00;99384.03;105440;1257;81496;-62
2023/12/24 02:52:09;;;;;;;4.60;1.60;;;;;;;-0.28;100.00;99387.98;105462;1254;71819;-62
2023/12/24 02:54:37;;;;;;;1.90;1.20;;;;;;;-0.28;100.00;99384.90;105477;1254;69119;-62
2023/12/24 02:57:05;;;;;;;2.10;1.50;;;;;;;-0.28;100.00;99386.95;105449;1257;69129;-63
2023/12/24 02:59:34;;;;;;;3.10;1.90;;;;;;;-0.28;100.00;99387.82;105517;1255;72282;-63
2023/12/24 03:02:02;;;;;;;5.70;2.40;;;;;;;-0.27;100.00;99388.15;105409;1257;81943;-63
2023/12/24 03:04:30;;;;;;;3.30;1.90;;;;;;;-0.27;100.00;99392.27;105428;1254;73201;-63
2023/12/24 03:06:58;;;;;;;2.80;1.80;;;;;;;-0.29;100.00;99389.02;105448;1253;69226;-63
2023/12/24 03:09:26;;;;;;;2.30;1.50;;;;;;;-0.29;100.00;99390.39;105444;1257;69284;-63
2023/12/24 03:11:55;;;;;;;3.60;1.70;;;;;;;-0.29;100.00;99391.59;105468;1253;71962;-63
2023/12/24 03:14:23;;;;;;;3.60;1.80;;;;;;;-0.29;100.00;99390.23;105471;1257;82072;-63
2023/12/24 03:16:52;;;;;;;2.70;1.40;;;;;;;-0.30;100.00;99384.23;105453;1254;71989;-63
2023/12/24 03:19:21;;;;;;;1.80;1.40;;;;;;;-0.31;100.00;99377.70;105484;1254;69119;-63
2023/12/24 03:21:49;;;;;;;3.50;1.50;;;;;;;-0.31;100.00;99381.48;105405;1254;69176;-63
2023/12/24 03:24:18;;;;;;;3.50;1.50;;;;;;;-0.32;100.00;99386.81;105476;1257;70546;-63
2023/12/24 03:26:46;;;;;;;3.30;1.50;;;;;;;-0.32;100.00;99391.11;105514;1257;81248;-63
2023/12/24 03:29:16;;;;;;;2.90;1.60;;;;;;;-0.32;100.00;99387.52;105485;1254;73168;-63
2023/12/24 03:31:44;;;;;;;3.10;1.60;;;;;;;-0.33;100.00;99387.35;105480;1256;69090;-63
2023/12/24 03:34:13;;;;;;;2.40;1.40;;;;;;;-0.33;100.00;99389.23;105472;1257;69110;-63
2023/12/24 03:36:42;;;;;;;2.70;1.10;;;;;;;-0.33;100.00;99387.70;105483;1255;72657;-63
2023/12/24 03:39:10;;;;;;;1.90;1.20;;;;;;;-0.33;100.00;99384.61;105428;1254;83707;-63
2023/12/24 03:41:38;;;;;;;2.10;1.30;;;;;;;-0.33;100.00;99379.46;105564;1257;71704;-63
2023/12/24 03:44:07;;;;;;;2.90;1.40;;;;;;;-0.33;100.00;99380.14;105643;1252;69016;-63
2023/12/24 03:46:35;;;;;;;2.10;1.30;;;;;;;-0.33;100.00;99388.73;105627;1256;69156;-62
2023/12/24 03:49:03;;;;;;;2.10;1.00;;;;;;;-0.33;100.00;99391.13;105571;1255;72047;-62
2023/12/24 03:51:31;;;;;;;2.40;1.40;;;;;;;-0.32;100.00;99394.73;105633;1252;81922;-62
2023/12/24 03:54:00;;;;;;;1.50;1.20;;;;;;;-0.32;100.00;99397.11;105610;1253;71931;-62
2023/12/24 03:56:28;;;;;;;2.70;1.20;;;;;;;-0.31;100.00;99396.25;105579;1254;69127;-62
2023/12/24 03:58:56;;;;;;;2.70;1.50;;;;;;;-0.30;100.00;99398.48;105582;1256;69216;-62
2023/12/24 04:01:25;;;;;;;2.80;1.60;;;;;;;-0.30;100.00;99396.08;105463;1254;72529;-62
2023/12/24 04:03:54;;;;;;;4.30;1.90;;;;;;;-0.29;100.00;99389.89;105618;1256;81432;-62
2023/12/24 04:06:22;;;;;;;2.50;1.40;;;;;;;-0.29;100.00;99388.68;105584;1256;71809;-62
2023/12/24 04:08:50;;;;;;;2.80;1.60;;;;;;;-0.29;100.00;99389.71;105553;1255;69186;-62
2023/12/24 04:11:18;;;;;;;2.90;1.80;;;;;;;-0.29;100.00;99392.64;105583;1256;69199;-62
2023/12/24 04:13:48;;;;;;;3.70;2.40;;;;;;;-0.30;100.00;99390.25;105603;1253;74377;-62
2023/12/24 04:16:17;;;;;;;5.30;2.60;;;;;;;-0.31;100.00;99389.73;105585;1256;81662;-62
2023/12/24 04:18:45;;;;;;;3.20;2.10;;;;;;;-0.30;100.00;99392.98;105553;1254;71759;-62
2023/12/24 04:21:14;;;;;;;3.80;2.20;;;;;;;-0.29;100.00;99390.23;105552;1256;69202;-62
2023/12/24 04:23:42;;;;;;;3.00;2.10;;;;;;;-0.28;100.00;99394.68;105562;1255;69116;-62
2023/12/24 04:26:11;;;;;;;2.80;1.80;;;;;;;-0.28;100.00;99387.81;105448;1254;73107;-62
2023/12/24 04:28:39;;;;;;;3.80;1.90;;;;;;;-0.26;100.00;99384.52;105466;1257;81356;-62
2023/12/24 04:31:08;;;;;;;2.90;2.30;;;;;;;-0.26;100.00;99380.23;105599;1255;73156;-62
2023/12/24 04:33:36;;;;;;;3.80;2.10;;;;;;;-0.25;100.00;99377.65;105559;1253;69332;-62
2023/12/24 04:36:06;;;;;;;2.50;1.70;;;;;;;-0.25;100.00;99375.42;105652;1256;69126;-62
2023/12/24 04:38:35;;;;;;;2.70;1.60;;;;;;;-0.24;100.00;99373.02;105457;1253;73869;-62
2023/12/24 04:41:03;;;;;;;2.40;1.70;;;;;;;-0.22;100.00;99375.23;105549;1256;81437;-62
2023/12/24 04:43:32;;;;;;;2.60;1.50;;;;;;;-0.21;100.00;99377.45;105562;1255;71645;-63
2023/12/24 04:46:00;;;;;;;1.80;1.30;;;;;;;-0.20;100.00;99375.70;105653;1253;69118;-62
2023/12/24 04:48:28;;;;;;;2.40;1.50;;;;;;;-0.20;100.00;99373.15;105427;1254;69267;-62
2023/12/24 04:50:58;;;;;;;2.90;1.70;;;;;;;-0.21;100.00;99369.89;105615;1255;74418;-63
2023/12/24 04:53:26;;;;;;;3.20;1.80;;;;;;;-0.20;100.00;99364.73;105550;1252;81346;-63
2023/12/24 04:55:55;;;;;;;1.70;1.20;;;;;;;-0.21;100.00;99361.83;105573;1254;71575;-63
2023/12/24 04:58:23;;;;;;;2.00;1.20;;;;;;;-0.21;100.00;99360.46;105580;1256;69184;-63
2023/12/24 05:00:52;;;;;;;1.10;0.80;;;;;;;-0.21;100.00;99360.28;105656;1253;69093;-63
2023/12/24 05:03:20;;;;;;;3.50;0.90;;;;;;;-0.20;100.00;99361.13;105488;1252;72821;-63
2023/12/24 05:05:49;;;;;;;1.20;0.70;;;;;;;-0.21;100.00;99366.13;105552;1256;81474;-63
2023/12/24 05:08:18;;;;;;;1.20;0.80;;;;;;;-0.22;100.00;99361.84;105586;1256;71756;-63
2023/12/24 05:10:46;;;;;;;2.10;0.90;;;;;;;-0.21;100.00;99359.78;105399;1253;69155;-63
2023/12/24 05:13:14;;;;;;;1.00;0.70;;;;;;;-0.22;100.00;99362.19;105481;1256;69141;-63
2023/12/24 05:15:42;;;;;;;0.90;0.70;;;;;;;-0.22;100.00;99362.34;105572;1252;72401;-63
2023/12/24 05:18:10;;;;;;;0.80;0.70;;;;;;;-0.20;100.00;99357.16;105465;1257;81708;-63
2023/12/24 05:20:39;;;;;;;1.50;0.80;;;;;;;-0.19;100.00;99358.20;105599;1255;71739;-63
2023/12/24 05:23:08;;;;;;;1.70;1.10;;;;;;;-0.20;100.00;99348.59;105626;1256;69100;-63
2023/12/24 05:25:36;;;;;;;2.00;1.40;;;;;;;-0.19;100.00;99348.23;105438;1257;69203;-63
2023/12/24 05:28:04;;;;;;;3.40;1.90;;;;;;;-0.20;100.00;99342.58;105641;1253;74777;-63
2023/12/24 05:30:33;;;;;;;3.10;1.60;;;;;;;-0.21;100.00;99345.18;105621;1253;81964;-63
2023/12/24 05:33:01;;;;;;;2.60;1.60;;;;;;;-0.22;100.00;99341.06;105560;1253;71868;-63
2023/12/24 05:35:29;;;;;;;2.70;1.50;;;;;;;-0.23;100.00;99339.67;105653;1253;69129;-63
2023/12/24 05:37:58;;;;;;;2.00;1.40;;;;;;;-0.23;100.00;99337.46;105600;1255;69125;-63
2023/12/24 05:40:26;;;;;;;2.30;1.30;;;;;;;-0.24;100.00;99337.47;105605;1256;72960;-63
2023/12/24 05:42:54;;;;;;;2.00;1.40;;;;;;;-0.24;100.00;99334.38;105555;1255;81307;-63
2023/12/24 05:45:22;;;;;;;2.00;1.30;;;;;;;-0.23;100.00;99337.96;105624;1256;71930;-63
2023/12/24 05:47:50;;;;;;;1.80;1.20;;;;;;;-0.23;100.00;99336.77;105571;1256;69076;-63
2023/12/24 05:50:19;;;;;;;2.70;1.10;;;;;;;-0.23;100.00;99338.66;105521;1253;69167;-63
2023/12/24 05:52:49;;;;;;;1.30;1.00;;;;;;;-0.23;100.00;99336.77;105548;1254;73174;-63
2023/12/24 05:55:18;;;;;;;1.30;1.00;;;;;;;-0.23;100.00;99336.60;105621;1256;81411;-63
2023/12/24 05:57:46;;;;;;;2.30;1.30;;;;;;;-0.23;100.00;99337.29;105537;1253;72066;-63
2023/12/24 06:00:15;;;;;;;1.90;1.40;;;;;;;-0.22;100.00;99337.45;105385;1253;69101;-63
2023/12/24 06:02:44;;;;;;;1.30;1.10;;;;;;;-0.22;100.00;99340.02;105655;1255;69104;-63
2023/12/24 06:05:13;;;;;;;1.60;1.10;;;;;;;-0.22;100.00;99334.37;105580;1253;72992;-63
2023/12/24 06:07:41;;;;;;;2.30;1.40;;;;;;;-0.22;100.00;99331.44;105628;1256;82062;-64
2023/12/24 06:10:10;;;;;;;1.90;1.40;;;;;;;-0.23;100.00;99332.48;105580;1255;70383;-63
2023/12/24 06:12:38;;;;;;;1.30;1.10;;;;;;;-0.23;100.00;99327.50;105525;1253;69205;-64
2023/12/24 06:15:06;;;;;;;1.50;1.20;;;;;;;-0.23;100.00;99325.44;105594;1256;69149;-64
2023/12/24 06:17:35;;;;;;;1.60;1.00;;;;;;;-0.24;100.00;99323.73;105629;1256;72503;-63
2023/12/24 06:20:04;;;;;;;2.00;1.00;;;;;;;-0.25;100.00;99329.41;105558;1256;81834;-64
2023/12/24 06:22:32;;;;;;;2.30;1.30;;;;;;;-0.25;100.00;99325.63;105612;1253;70192;-64
2023/12/24 06:25:01;;;;;;;2.10;1.00;;;;;;;-0.25;100.00;99334.05;105585;1253;69218;-63
2023/12/24 06:27:29;;;;;;;2.20;1.30;;;;;;;-0.24;100.00;99336.63;105568;1255;69188;-64
2023/12/24 06:29:57;;;;;;;2.00;1.10;;;;;;;-0.26;100.00;99340.23;105618;1253;72455;-64
2023/12/24 06:32:25;;;;;;;2.00;1.40;;;;;;;-0.26;100.00;99343.66;105585;1253;81669;-63
2023/12/24 06:34:54;;;;;;;4.00;1.90;;;;;;;-0.25;100.00;99340.57;105548;1252;72214;-64
2023/12/24 06:37:22;;;;;;;8.10;4.00;;;;;;;-0.24;100.00;99340.21;105562;1253;69144;-64
2023/12/24 06:39:50;;;;;;;5.50;2.80;;;;;;;-0.23;100.00;99357.04;105540;1253;69216;-63
2023/12/24 06:42:18;;;;;;;2.60;1.30;;;;;;;-0.23;100.00;99349.30;105627;1253;72943;-63
2023/12/24 06:44:46;;;;;;;2.00;1.10;;;;;;;-0.23;100.00;99348.79;105607;1255;82689;-64
2023/12/24 06:47:14;;;;;;;5.70;3.50;;;;;;;-0.21;100.00;99333.66;105529;1252;70583;-64
2023/12/24 06:49:44;;;;;;;6.90;4.20;;;;;;;-0.20;100.00;99329.36;105527;1256;69068;-62
2023/12/24 06:52:13;;;;;;;2.60;1.80;;;;;;;-0.20;100.00;99327.83;105587;1255;69200;-62
2023/12/24 06:54:41;;;;;;;5.00;3.30;;;;;;;-0.20;100.00;99326.45;105728;1253;73332;-62
2023/12/24 06:57:09;;;;;;;6.30;3.90;;;;;;;-0.20;100.00;99328.16;105555;1253;81601;-65
2023/12/24 06:59:38;;;;;;;3.30;1.60;;;;;;;-0.19;100.00;99334.16;105671;1254;72004;-63
2023/12/24 07:02:07;;;;;;;3.00;2.20;;;;;;;-0.18;100.00;99328.31;105633;1256;69179;-63
2023/12/24 07:04:35;;;;;;;1.90;1.30;;;;;;;-0.17;100.00;99328.32;105635;1256;69178;-62
2023/12/24 07:07:04;;;;;;;1.50;1.10;;;;;;;-0.16;100.00;99329.15;105624;1253;73117;-63
2023/12/24 07:09:32;;;;;;;1.40;1.20;;;;;;;-0.16;100.00;99330.53;105550;1254;81409;-62
2023/12/24 07:12:00;;;;;;;2.90;1.80;;;;;;;-0.16;100.00;99323.84;105608;1254;71986;-63
2023/12/24 07:14:28;;;;;;;2.50;2.30;;;;;;;-0.18;100.00;99316.63;105586;1254;69215;-63
2023/12/24 07:16:57;;;;;;;3.10;2.50;;;;;;;-0.17;100.00;99318.16;105558;1256;69190;-63
2023/12/24 07:19:25;;;;;;;31.30;12.40;;;;;;;-0.16;100.00;99306.66;105556;1252;73671;-63
2023/12/24 07:21:53;;;;;;;5.70;2.30;;;;;;;-0.17;100.00;99318.85;105439;1256;81594;-63
2023/12/24 07:24:21;;;;;;;3.00;1.20;;;;;;;-0.18;100.00;99311.14;105576;1253;71831;-62
2023/12/24 07:26:49;;;;;;;91.00;30.20;;;;;;;-0.18;100.00;99295.17;105519;1255;69512;-62
2023/12/24 07:29:17;;;;;;;15.00;6.10;;;;;;;-0.18;100.00;99299.14;105549;1252;69214;-63
2023/12/24 07:31:49;;;;;;;3.40;2.50;;;;;;;-0.18;100.00;99309.25;105550;1256;72835;-63
2023/12/24 07:34:17;;;;;;;1.60;0.90;;;;;;;-0.17;100.00;99319.20;105566;1256;81725;-63
2023/12/24 07:36:45;;;;;;;1.20;0.70;;;;;;;-0.17;100.00;99313.88;105578;1254;73679;-63
2023/12/24 07:39:13;;;;;;;1.30;0.70;;;;;;;-0.16;100.00;99303.75;105574;1253;69113;-63
2023/12/24 07:41:42;;;;;;;3.50;2.30;;;;;;;-0.15;100.00;99282.96;105550;1256;69270;-63
2023/12/24 07:44:13;;;;;;;3.00;1.50;;;;;;;-0.15;100.00;99288.62;105632;1253;72112;-63
2023/12/24 07:46:42;;;;;;;1.80;1.10;;;;;;;-0.15;100.00;99287.23;105589;1255;81360;-63
2023/12/24 07:49:10;;;;;;;1.80;0.90;;;;;;;-0.14;100.00;99283.30;105419;1257;72004;-63
2023/12/24 07:51:39;;;;;;;1.30;1.00;;;;;;;-0.15;100.00;99279.52;105568;1253;69202;-63
2023/12/24 07:54:07;;;;;;;2.20;0.70;;;;;;;-0.15;100.00;99281.06;105599;1255;69173;-63
2023/12/24 07:56:35;;;;;;;1.80;0.90;;;;;;;-0.14;100.00;99278.83;105526;1253;72939;-63
2023/12/24 07:59:03;;;;;;;2.20;1.10;;;;;;;-0.13;100.00;99279.16;105575;1255;81445;-63
2023/12/24 08:01:32;;;;;;;1.50;0.80;;;;;;;-0.12;100.00;99284.45;105530;1253;73908;-63
2023/12/24 08:04:00;;;;;;;3.80;1.00;;;;;;;-0.11;100.00;99275.86;105616;1254;69523;-63
2023/12/24 08:06:28;;;;;;;4.00;1.70;;;;;;;-0.11;100.00;99274.48;105578;1253;69242;-63
2023/12/24 08:08:57;;;;;;;3.60;1.70;;;;;;;-0.09;100.00;99270.69;105625;1255;71861;-63
2023/12/24 08:11:25;;;;;;;3.70;2.10;;;;;;;-0.09;100.00;99266.56;105622;1255;81385;-63
2023/12/24 08:13:54;;;;;;;3.50;1.80;;;;;;;-0.08;100.00;99263.98;105522;1252;71705;-63
2023/12/24 08:16:22;;;;;;;3.80;2.20;;;;;;;-0.07;100.00;99262.09;105574;1252;69178;-63
2023/12/24 08:18:50;;;;;;;4.20;2.50;;;;;;;-0.07;100.00;99268.42;105586;1256;69155;-63
2023/12/24 08:21:19;;;;;;;3.10;1.90;;;;;;;-0.06;100.00;99272.20;105629;1252;73562;-62
2023/12/24 08:23:48;;;;;;;3.70;2.70;;;;;;;-0.06;100.00;99282.15;105532;1253;81389;-62
2023/12/24 08:26:18;;;;;;;3.40;2.90;;;;;;;-0.05;100.00;99267.73;105642;1252;71393;-62
2023/12/24 08:28:46;;;;;;;5.70;3.00;;;;;;;-0.04;100.00;99265.98;105598;1254;69100;-62
2023/12/24 08:31:14;;;;;;;2.60;2.10;;;;;;;-0.02;100.00;99271.29;105669;1253;69183;-63
2023/12/24 08:33:42;;;;;;;1.90;1.10;;;;;;;-0.02;100.00;99257.89;105563;1253;72978;-63
2023/12/24 08:36:11;;;;;;;1.10;1.00;;;;;;;-0.01;100.00;99252.05;105407;1257;82840;-63
2023/12/24 08:38:39;;;;;;;1.00;0.70;;;;;;;0.01;100.00;99246.20;105555;1256;72127;-63
2023/12/24 08:41:07;;;;;;;2.10;0.80;;;;;;;0.02;100.00;99244.45;105579;1255;69134;-63
2023/12/24 08:43:35;;;;;;;4.40;1.70;;;;;;;0.02;100.00;99239.64;105551;1253;69189;-63
2023/12/24 08:46:04;;;;;;;2.10;0.90;;;;;;;0.03;100.00;99243.77;105597;1256;73972;-63
2023/12/24 08:48:32;;;;;;;1.10;0.70;;;;;;;0.02;100.00;99230.70;105621;1253;80660;-63
2023/12/24 08:51:01;;;;;;;1.50;0.80;;;;;;;0.04;100.00;99223.99;105609;1253;72083;-63
2023/12/24 08:53:30;;;;;;;1.30;0.60;;;;;;;0.05;100.00;99231.36;105614;1253;69093;-63
2023/12/24 08:55:58;;;;;;;1.10;0.40;;;;;;;0.06;100.00;99230.50;105604;1256;69180;-62
2023/12/24 08:58:27;;;;;;;3.50;1.40;;;;;;;0.06;100.00;99227.42;105590;1252;75051;-62
2023/12/24 09:00:55;;;;;;;1.10;0.90;;;;;;;0.08;100.00;99223.09;105572;1256;82822;-62
2023/12/24 09:03:23;;;;;;;0.30;0.30;;;;;;;0.09;100.00;99237.48;105517;1256;71668;-62
2023/12/24 09:05:52;;;;;;;0.70;0.40;;;;;;;0.09;100.00;99234.05;105548;1256;69137;-62
2023/12/24 09:08:21;;;;;;;6.00;3.10;;;;;;;0.09;100.00;99200.39;105586;1255;69193;-62
2023/12/24 09:10:49;;;;;;;2.90;1.70;;;;;;;0.07;100.00;99227.72;105635;1253;73131;-62
2023/12/24 09:13:17;;;;;;;1.80;0.90;;;;;;;0.08;100.00;99222.06;105524;1255;82329;-62
2023/12/24 09:15:49;;;;;;;1.60;0.80;;;;;;;0.09;100.00;99216.55;105529;1254;72975;-62
2023/12/24 09:18:18;;;;;;;3.70;1.30;;;;;;;0.10;100.00;99219.11;105549;1255;69113;-62
2023/12/24 09:20:46;;;;;;;1.90;0.90;;;;;;;0.10;100.00;99222.88;105610;1256;69178;-62
2023/12/24 09:23:14;;;;;;;2.00;1.20;;;;;;;0.12;100.00;99224.91;105552;1252;72504;-62
2023/12/24 09:25:43;;;;;;;1.70;1.00;;;;;;;0.13;100.00;99222.30;105570;1255;81665;-62
2023/12/24 09:28:11;;;;;;;4.40;1.40;;;;;;;0.16;100.00;99222.11;105579;1255;73009;-62
2023/12/24 09:30:39;;;;;;;2.20;1.30;;;;;;;0.17;100.00;99217.63;105536;1252;69112;-62
2023/12/24 09:33:07;;;;;;;3.00;1.80;;;;;;;0.19;100.00;99215.71;105543;1255;69154;-62
2023/12/24 09:35:36;;;;;;;13.90;6.50;;;;;;;0.22;100.00;99200.55;105629;1253;71283;-62
2023/12/24 09:38:04;;;;;;;4.00;2.10;;;;;;;0.24;100.00;99213.76;105599;1253;81601;-62
2023/12/24 09:40:33;;;;;;;3.20;1.90;;;;;;;0.27;100.00;99204.08;105546;1253;71649;-62
2023/12/24 09:43:01;;;;;;;2.70;1.60;;;;;;;0.29;100.00;99193.23;105535;1252;69152;-62
2023/12/24 09:45:32;;;;;;;33.00;12.30;;;;;;;0.32;100.00;99187.00;105574;1255;69231;-62
2023/12/24 09:48:00;;;;;;;;;;;;;;;0.34;100.00;99180.27;105559;1255;73227;-62
2023/12/24 09:50:29;;;;;;;44.20;11.50;;;;;;;0.37;100.00;99172.48;105548;1255;81360;-61
2023/12/24 09:52:57;;;;;;;106.40;31.50;;;;;;;0.41;100.00;99173.81;105543;1255;70775;-62
2023/12/24 09:55:25;;;;;;;136.60;39.20;;;;;;;0.46;100.00;99164.96;105524;1253;69205;-62
2023/12/24 09:57:53;;;;;;;10.70;5.70;;;;;;;0.49;100.00;99170.23;105643;1256;69186;-61
2023/12/24 10:00:22;;;;;;;53.50;16.50;;;;;;;0.54;100.00;99166.56;105554;1251;73204;-62
2023/12/24 10:02:50;;;;;;;75.80;24.20;;;;;;;0.60;100.00;99164.91;105694;1256;81641;-61
2023/12/24 10:05:20;;;;;;;185.90;54.00;;;;;;;0.65;100.00;99161.05;105643;1255;71044;-61
2023/12/24 10:07:48;;;;;;;189.10;52.50;;;;;;;0.70;100.00;99154.27;105571;1253;69185;-61
2023/12/24 10:10:29;;;;;;;52.40;16.50;;;;;;;0.72;100.00;99153.02;105520;1255;69414;-61
2023/12/24 10:13:05;;;;;;;20.60;7.40;;;;;;;0.78;100.00;99148.61;105592;1254;72732;-62
2023/12/24 10:15:38;;;;;;;79.00;23.90;;;;;;;0.84;100.00;99137.84;105554;1253;80939;-61
2023/12/24 10:18:19;;;;;;;31.00;9.60;;;;;;;0.86;100.00;99144.85;105509;1254;72286;-62
2023/12/24 10:20:49;;;;;;;180.60;47.00;;;;;;;0.91;100.00;99134.81;105542;1253;69072;-62
2023/12/24 10:23:19;;;;;;;109.20;29.60;;;;;;;0.94;100.00;99133.90;105611;1253;69142;-62
2023/12/24 10:26:00;;;;;;;44.30;16.00;;;;;;;0.97;100.00;99129.70;105604;1253;73063;-62
2023/12/24 10:28:28;;;;;;;19.70;8.50;;;;;;;1.01;100.00;99125.16;105570;1255;81177;-62
2023/12/24 10:31:07;;;;;;;23.40;9.00;;;;;;;1.03;100.00;99123.22;105536;1253;71997;-62
2023/12/24 10:33:39;;;;;;;8.90;5.20;;;;;;;1.06;100.00;99126.61;105573;1255;69224;-62
2023/12/24 10:36:08;;;;;;;12.70;5.80;;;;;;;1.07;100.00;99122.79;105577;1253;69138;-61
2023/12/24 10:38:37;;;;;;;8.80;3.80;;;;;;;1.06;100.00;99111.80;105586;1253;73167;-61
2023/12/24 10:41:08;;;;;;;6.70;4.30;;;;;;;1.08;100.00;99109.71;105464;1253;206589;-61
2023/12/24 10:43:36;;;;;;;20.20;8.40;;;;;;;1.10;100.00;99109.33;105552;1255;71631;-61
2023/12/24 10:46:05;;;;;;;10.60;5.60;;;;;;;1.10;100.00;99109.50;105593;1256;69160;-60
2023/12/24 10:48:33;;;;;;;8.70;6.20;;;;;;;1.09;100.00;99111.59;105521;1253;69189;-60
2023/12/24 10:51:01;;;;;;;10.60;6.50;;;;;;;1.08;100.00;99105.41;105516;1254;72996;-60
2023/12/24 10:53:30;;;;;;;10.20;7.30;;;;;;;1.09;100.00;99102.64;105666;1256;82102;-60
2023/12/24 10:56:06;;;;;;;10.70;7.30;;;;;;;1.13;100.00;99100.84;105412;1253;72336;-60
2023/12/24 10:58:43;;;;;;;17.20;12.00;;;;;;;1.15;100.00;99094.77;105453;1253;69062;-60
2023/12/24 11:01:13;;;;;;;19.60;12.10;;;;;;;1.17;100.00;99088.73;105587;1256;69240;-60
2023/12/24 11:03:49;;;;;;;15.00;9.30;;;;;;;1.21;100.00;99086.41;105593;1253;73530;-60
2023/12/24 11:06:36;;;;;;;10.10;7.20;;;;;;;1.26;100.00;99077.52;105542;1252;81588;-60
2023/12/24 11:09:07;;;;;;;15.70;8.90;;;;;;;1.32;100.00;99076.89;105498;1256;72311;-60
2023/12/24 11:11:52;;;;;;;14.20;8.50;;;;;;;1.37;100.00;99077.66;105580;1252;69190;-60
2023/12/24 11:14:45;;;;;;;12.20;7.40;;;;;;;1.43;100.00;99070.63;105529;1252;70448;-60
2023/12/24 11:17:36;;;;;;;13.40;7.20;;;;;;;1.48;100.00;99060.02;105564;1255;72852;-61
2023/12/24 11:20:16;;;;;;;9.60;7.10;;;;;;;1.51;100.00;99055.66;105581;1255;81343;-62
2023/12/24 11:23:11;;;;;;;12.30;8.30;;;;;;;1.56;100.00;99049.70;105519;1253;72999;-62
2023/12/24 11:25:47;;;;;;;12.90;8.00;;;;;;;1.61;100.00;99043.20;105537;1253;69144;-60
2023/12/24 11:28:27;;;;;;;15.40;9.90;;;;;;;1.68;100.00;99040.31;105633;1253;69169;-59